createdAt,value
2022-11-06T00:01:14.123Z,61.69
2022-11-06T00:03:41.643Z,61.63
2022-11-06T00:06:29.009Z,62.28
2022-11-06T00:08:56.369Z,62.68
2022-11-06T00:11:23.234Z,62.00
2022-11-06T00:13:52.471Z,62.43
2022-11-06T00:16:20.183Z,62.91
2022-11-06T00:18:47.516Z,62.98
2022-11-06T00:21:24.628Z,62.23
2022-11-06T00:23:52.403Z,61.81
2022-11-06T00:26:26.099Z,62.35
2022-11-06T00:28:53.927Z,62.34
2022-11-06T00:31:23.263Z,62.87
2022-11-06T00:33:51.090Z,61.08
2022-11-06T00:36:20.527Z,61.44
2022-11-06T00:38:48.148Z,61.87
2022-11-06T00:41:17.087Z,62.13
2022-11-06T00:43:49.650Z,61.63
2022-11-06T00:46:17.160Z,61.54
2022-11-06T00:48:44.188Z,61.36
2022-11-06T00:51:12.257Z,61.11
2022-11-06T00:53:40.206Z,60.82
2022-11-06T00:56:18.312Z,61.33
2022-11-06T00:58:46.852Z,61.12
2022-11-06T01:01:18.844Z,60.86
2022-11-06T01:03:51.443Z,60.76
2022-11-06T01:06:23.576Z,61.67
2022-11-06T01:08:51.685Z,62.31
2022-11-06T01:11:22.541Z,62.13
2022-11-06T01:13:51.832Z,61.69
2022-11-06T01:16:19.668Z,60.68
2022-11-06T01:18:46.956Z,60.73
2022-11-06T01:21:20.029Z,61.07
2022-11-06T01:23:47.773Z,61.46
2022-11-06T01:26:21.180Z,61.56
2022-11-06T01:28:56.978Z,60.94
2022-11-06T01:31:26.531Z,61.32
2022-11-06T01:33:55.388Z,59.85
2022-11-06T01:36:23.095Z,59.85
2022-11-06T01:38:52.504Z,60.04
2022-11-06T01:41:22.126Z,61.11
2022-11-06T01:43:54.392Z,61.44
2022-11-06T01:46:23.935Z,60.48
2022-11-06T01:48:58.930Z,61.84
2022-11-06T01:51:28.404Z,61.04
2022-11-06T01:53:55.904Z,60.91
2022-11-06T01:56:23.597Z,60.72
2022-11-06T01:58:53.760Z,60.40
2022-11-06T02:01:20.953Z,60.97
2022-11-06T02:03:57.727Z,61.15
2022-11-06T02:06:25.217Z,60.73
2022-11-06T02:08:52.135Z,60.91
2022-11-06T02:11:19.313Z,60.68
2022-11-06T02:14:20.658Z,60.40
2022-11-06T02:17:15.405Z,60.54
2022-11-06T02:20:35.780Z,60.62
2022-11-06T02:23:07.191Z,60.70
2022-11-06T02:26:01.611Z,61.88
2022-11-06T02:28:35.553Z,62.74
2022-11-06T02:31:10.388Z,63.32
2022-11-06T02:33:44.734Z,63.67
2022-11-06T02:36:24.293Z,63.83
2022-11-06T02:38:56.635Z,63.32
2022-11-06T02:41:32.029Z,63.62
2022-11-06T02:44:00.434Z,63.80
2022-11-06T02:46:30.885Z,63.64
2022-11-06T02:49:04.590Z,64.45
2022-11-06T02:51:36.437Z,64.14
2022-11-06T02:54:05.910Z,63.22
2022-11-06T02:56:39.923Z,63.44
2022-11-06T02:59:20.727Z,62.96
2022-11-06T03:02:10.746Z,62.78
2022-11-06T03:04:39.481Z,62.99
2022-11-06T03:07:12.362Z,63.05
2022-11-06T03:09:39.437Z,62.66
2022-11-06T03:12:25.403Z,62.65
2022-11-06T03:15:33.726Z,62.55
2022-11-06T03:18:15.890Z,62.22
2022-11-06T03:20:52.093Z,61.70
2022-11-06T03:23:25.616Z,61.97
2022-11-06T03:26:01.199Z,61.23
2022-11-06T03:28:39.156Z,61.23
2022-11-06T03:31:11.721Z,62.11
2022-11-06T03:33:46.238Z,61.53
2022-11-06T03:36:19.794Z,61.40
2022-11-06T03:38:54.185Z,61.71
2022-11-06T03:41:28.619Z,61.68
2022-11-06T03:43:59.425Z,61.18
2022-11-06T03:46:28.332Z,61.71
2022-11-06T03:49:05.776Z,62.56
2022-11-06T03:51:45.090Z,62.25
2022-11-06T03:54:17.520Z,62.02
2022-11-06T03:56:50.965Z,62.91
2022-11-06T03:59:23.545Z,63.67
2022-11-06T04:01:55.577Z,63.01
2022-11-06T04:04:27.953Z,63.00
2022-11-06T04:07:03.182Z,62.77
2022-11-06T04:09:52.751Z,62.60
2022-11-06T04:12:41.781Z,62.56
2022-11-06T04:15:12.490Z,62.41
2022-11-06T04:17:41.030Z,62.81
2022-11-06T04:20:33.203Z,62.85
2022-11-06T04:23:19.379Z,64.11
2022-11-06T04:26:24.247Z,63.55
2022-11-06T04:29:00.190Z,64.38
2022-11-06T04:31:42.662Z,64.21
2022-11-06T04:34:31.189Z,64.14
2022-11-06T04:37:22.686Z,64.97
2022-11-06T04:40:30.692Z,65.15
2022-11-06T04:43:14.847Z,64.52
2022-11-06T04:45:47.678Z,64.31
2022-11-06T04:48:16.275Z,64.72
2022-11-06T04:50:49.720Z,64.50
2022-11-06T04:53:19.035Z,64.56
2022-11-06T04:55:52.311Z,63.99
2022-11-06T04:58:19.261Z,63.45
2022-11-06T05:00:48.852Z,63.36
2022-11-06T05:03:16.997Z,63.56
2022-11-06T05:05:44.005Z,63.94
2022-11-06T05:08:16.971Z,64.04
2022-11-06T05:10:44.977Z,63.83
2022-11-06T05:13:12.720Z,63.89
2022-11-06T05:15:39.798Z,63.56
2022-11-06T05:18:07.306Z,64.58
2022-11-06T05:20:35.025Z,64.64
2022-11-06T05:23:01.917Z,65.17
2022-11-06T05:25:37.765Z,65.80
2022-11-06T05:28:07.252Z,69.24
2022-11-06T05:30:36.073Z,69.93
2022-11-06T05:33:04.033Z,69.69
2022-11-06T05:35:30.945Z,68.94
2022-11-06T05:38:02.245Z,68.64
2022-11-06T05:40:29.652Z,69.15
2022-11-06T05:42:56.573Z,68.59
2022-11-06T05:45:23.504Z,70.00
2022-11-06T05:47:50.362Z,71.25
2022-11-06T05:50:17.381Z,69.25
2022-11-06T05:52:44.463Z,70.51
2022-11-06T05:55:14.710Z,71.07
2022-11-06T05:57:42.931Z,70.51
2022-11-06T06:00:11.952Z,68.70
2022-11-06T06:02:43.173Z,69.38
2022-11-06T06:05:10.374Z,67.71
2022-11-06T06:07:37.334Z,68.22
2022-11-06T06:10:04.972Z,68.71
2022-11-06T06:12:31.839Z,73.09
2022-11-06T06:14:58.767Z,69.86
2022-11-06T06:17:25.907Z,70.64
2022-11-06T06:19:53.000Z,69.98
2022-11-06T06:22:20.028Z,70.83
2022-11-06T06:24:47.176Z,71.03
2022-11-06T06:27:14.158Z,71.81
2022-11-06T06:29:41.083Z,70.43
2022-11-06T06:32:08.070Z,70.31
2022-11-06T06:34:34.963Z,71.98
2022-11-06T06:37:01.850Z,71.66
2022-11-06T06:39:28.758Z,70.26
2022-11-06T06:41:55.644Z,71.27
2022-11-06T06:44:22.700Z,72.26
2022-11-06T06:46:49.588Z,71.24
2022-11-06T06:49:16.484Z,71.31
2022-11-06T06:51:43.353Z,70.64
2022-11-06T06:54:10.358Z,70.62
2022-11-06T06:56:37.234Z,69.57
2022-11-06T06:59:04.313Z,68.38
2022-11-06T07:01:31.347Z,67.49
2022-11-06T07:04:02.952Z,65.96
2022-11-06T07:06:31.341Z,64.97
2022-11-06T07:08:58.336Z,65.55
2022-11-06T07:11:25.464Z,66.75
2022-11-06T07:13:52.470Z,67.21
2022-11-06T07:16:21.332Z,66.52
2022-11-06T07:18:48.235Z,66.45
2022-11-06T07:21:15.139Z,66.37
2022-11-06T07:23:42.141Z,67.81
2022-11-06T07:26:09.092Z,67.48
2022-11-06T07:28:36.137Z,67.95
2022-11-06T07:31:05.092Z,67.91
2022-11-06T07:33:32.765Z,67.21
2022-11-06T07:36:05.168Z,67.19
2022-11-06T07:38:35.111Z,66.34
2022-11-06T07:41:07.294Z,66.66
2022-11-06T07:43:34.917Z,67.92
2022-11-06T07:46:03.643Z,66.66
2022-11-06T07:48:31.064Z,65.95
2022-11-06T07:50:58.552Z,66.97
2022-11-06T07:53:25.584Z,67.02
2022-11-06T07:55:54.695Z,66.27
2022-11-06T07:58:22.517Z,68.13
2022-11-06T08:00:54.552Z,68.36
2022-11-06T08:03:22.103Z,66.31
2022-11-06T08:05:49.612Z,66.46
2022-11-06T08:08:17.031Z,66.80
2022-11-06T08:10:44.233Z,67.54
2022-11-06T08:13:11.648Z,67.92
2022-11-06T08:15:39.111Z,67.92
2022-11-06T08:18:07.030Z,68.50
2022-11-06T08:20:37.822Z,67.70
2022-11-06T08:23:06.724Z,68.08
2022-11-06T08:25:35.010Z,68.75
2022-11-06T08:28:02.683Z,69.71
2022-11-06T08:30:30.827Z,69.38
2022-11-06T08:33:07.244Z,69.74
2022-11-06T08:35:35.084Z,70.64
2022-11-06T08:38:02.536Z,70.90
2022-11-06T08:40:31.336Z,69.99
2022-11-06T08:43:03.364Z,70.68
2022-11-06T08:45:37.550Z,71.38
2022-11-06T08:48:05.097Z,71.37
2022-11-06T08:50:32.640Z,72.32
2022-11-06T08:53:04.376Z,71.57
2022-11-06T08:55:31.687Z,70.06
2022-11-06T08:57:58.605Z,70.77
2022-11-06T09:00:25.693Z,69.93
2022-11-06T09:02:59.161Z,69.48
2022-11-06T09:05:26.148Z,69.50
2022-11-06T09:07:53.065Z,68.88
2022-11-06T09:10:20.247Z,69.22
2022-11-06T09:12:47.207Z,69.20
2022-11-06T09:15:14.220Z,71.86
2022-11-06T09:17:49.046Z,70.81
2022-11-06T09:20:19.224Z,69.77
2022-11-06T09:22:47.402Z,70.52
2022-11-06T09:25:15.224Z,70.64
2022-11-06T09:27:46.984Z,69.75
2022-11-06T09:30:16.524Z,70.46
2022-11-06T09:32:52.342Z,71.53
2022-11-06T09:35:20.629Z,69.31
2022-11-06T09:37:47.889Z,68.54
2022-11-06T09:40:36.943Z,66.55
2022-11-06T09:44:04.084Z,67.69
2022-11-06T09:46:31.658Z,67.76
2022-11-06T09:49:22.581Z,68.92
2022-11-06T09:51:57.539Z,67.68
2022-11-06T09:54:24.577Z,67.40
2022-11-06T09:56:59.788Z,70.21
2022-11-06T09:59:27.069Z,68.68
2022-11-06T10:02:01.707Z,69.21
2022-11-06T10:04:36.831Z,68.38
2022-11-06T10:07:03.810Z,69.08
2022-11-06T10:09:31.079Z,69.72
2022-11-06T10:12:23.196Z,68.77
2022-11-06T10:15:25.510Z,70.97
2022-11-06T10:18:16.896Z,70.19
2022-11-06T10:20:51.735Z,69.61
2022-11-06T10:23:29.960Z,69.90
2022-11-06T10:26:09.097Z,68.68
2022-11-06T10:28:48.216Z,69.52
2022-11-06T10:31:33.477Z,70.49
2022-11-06T10:34:02.670Z,71.24
2022-11-06T10:37:17.501Z,70.04
2022-11-06T10:39:47.016Z,71.02
2022-11-06T10:42:19.388Z,71.77
2022-11-06T10:45:02.473Z,69.82
2022-11-06T10:48:10.048Z,72.25
2022-11-06T10:50:57.910Z,74.66
2022-11-06T10:53:31.107Z,71.77
2022-11-06T10:56:21.385Z,68.81
2022-11-06T10:58:48.717Z,74.17
2022-11-06T11:01:16.023Z,71.33
2022-11-06T11:03:45.028Z,69.49
2022-11-06T11:06:12.094Z,70.44
2022-11-06T11:08:52.649Z,71.02
2022-11-06T11:11:25.480Z,72.40
2022-11-06T11:14:12.294Z,69.50
2022-11-06T11:16:42.828Z,70.53
2022-11-06T11:19:38.671Z,71.87
2022-11-06T11:22:17.460Z,70.95
2022-11-06T11:25:05.538Z,69.33
2022-11-06T11:27:37.852Z,69.08
2022-11-06T11:30:06.035Z,69.54
2022-11-06T11:32:33.634Z,67.87
2022-11-06T11:35:02.328Z,67.65
2022-11-06T11:37:34.071Z,67.57
2022-11-06T11:40:23.512Z,68.71
2022-11-06T11:42:50.627Z,63.35
2022-11-06T11:45:19.292Z,66.82
2022-11-06T11:47:51.718Z,68.32
2022-11-06T11:50:26.618Z,68.07
2022-11-06T11:53:09.857Z,67.76
2022-11-06T11:55:44.725Z,66.45
2022-11-06T11:58:30.485Z,66.39
2022-11-06T12:01:03.338Z,66.93
2022-11-06T12:03:44.672Z,66.98
2022-11-06T12:06:19.649Z,67.10
2022-11-06T12:08:49.102Z,66.91
2022-11-06T12:11:22.460Z,68.03
2022-11-06T12:14:18.307Z,67.19
2022-11-06T12:16:48.989Z,67.79
2022-11-06T12:19:19.471Z,68.31
2022-11-06T12:21:51.773Z,67.24
2022-11-06T12:24:23.614Z,67.09
2022-11-06T12:26:59.262Z,68.07
2022-11-06T12:29:38.791Z,67.64
2022-11-06T12:32:14.751Z,66.52
2022-11-06T12:35:19.075Z,67.75
2022-11-06T12:37:54.803Z,67.64
2022-11-06T12:40:25.351Z,67.05
2022-11-06T12:43:02.569Z,65.65
2022-11-06T12:45:52.412Z,65.43
2022-11-06T12:48:25.177Z,65.61
2022-11-06T12:51:08.111Z,64.86
2022-11-06T12:54:00.340Z,64.32
2022-11-06T12:57:05.673Z,65.31
2022-11-06T12:59:44.532Z,65.88
2022-11-06T13:02:30.711Z,66.11
2022-11-06T13:05:16.644Z,66.95
2022-11-06T13:08:02.522Z,68.39
2022-11-06T13:10:32.894Z,67.04
2022-11-06T13:13:34.531Z,66.23
2022-11-06T13:16:13.507Z,66.81
2022-11-06T13:18:53.004Z,66.64
2022-11-06T13:22:00.760Z,66.98
2022-11-06T13:25:04.040Z,65.43
2022-11-06T13:27:42.671Z,66.67
2022-11-06T13:30:22.317Z,66.15
2022-11-06T13:33:19.861Z,65.47
2022-11-06T13:35:47.114Z,65.65
2022-11-06T13:38:23.610Z,66.03
2022-11-06T13:40:58.120Z,65.76
2022-11-06T13:43:41.747Z,66.05
2022-11-06T13:46:38.547Z,66.51
2022-11-06T13:49:22.628Z,66.11
2022-11-06T13:51:56.677Z,66.51
2022-11-06T13:54:35.628Z,66.37
2022-11-06T13:57:05.685Z,66.29
2022-11-06T13:59:58.913Z,66.46
2022-11-06T14:02:32.034Z,66.62
2022-11-06T14:05:28.225Z,66.50
2022-11-06T14:07:56.454Z,67.10
2022-11-06T14:10:35.901Z,66.59
2022-11-06T14:13:05.140Z,66.25
2022-11-06T14:15:42.071Z,66.17
2022-11-06T14:18:14.974Z,66.33
2022-11-06T14:20:42.142Z,65.91
2022-11-06T14:23:30.482Z,67.48
2022-11-06T14:26:09.474Z,66.86
2022-11-06T14:28:42.018Z,66.40
2022-11-06T14:31:14.034Z,66.14
2022-11-06T14:33:44.810Z,66.50
2022-11-06T14:36:23.787Z,66.53
2022-11-06T14:38:51.344Z,66.51
2022-11-06T14:41:36.591Z,66.34
2022-11-06T14:44:13.402Z,66.60
2022-11-06T14:46:49.139Z,66.97
2022-11-06T14:49:34.216Z,66.32
2022-11-06T14:52:13.273Z,65.86
2022-11-06T14:54:49.710Z,66.36
2022-11-06T14:57:33.470Z,67.34
2022-11-06T15:00:01.309Z,66.79
2022-11-06T15:02:31.120Z,66.48
2022-11-06T15:05:07.420Z,66.36
2022-11-06T15:10:42.526Z,65.93
2022-11-06T15:13:18.619Z,65.85
2022-11-06T15:15:48.434Z,65.75
2022-11-06T15:18:23.054Z,66.73
2022-11-06T15:20:53.495Z,66.54
2022-11-06T15:23:25.470Z,67.76
2022-11-06T15:26:05.869Z,66.51
2022-11-06T15:28:41.036Z,64.78
2022-11-06T15:31:17.437Z,64.48
2022-11-06T15:33:56.019Z,63.76
2022-11-06T15:36:23.923Z,63.88
2022-11-06T15:38:51.047Z,64.65
2022-11-06T15:41:26.943Z,65.56
2022-11-06T15:43:56.035Z,64.74
2022-11-06T15:46:28.406Z,65.12
2022-11-06T15:49:14.263Z,64.08
2022-11-06T15:51:41.288Z,66.56
2022-11-06T15:54:14.397Z,66.96
2022-11-06T15:56:42.503Z,67.00
2022-11-06T15:59:13.763Z,67.47
2022-11-06T16:01:42.172Z,67.24
2022-11-06T16:04:17.261Z,64.66
2022-11-06T16:06:45.031Z,66.00
2022-11-06T16:09:20.376Z,65.64
2022-11-06T16:11:50.576Z,65.72
2022-11-06T16:14:18.538Z,66.27
2022-11-06T16:16:53.161Z,66.04
2022-11-06T16:19:33.988Z,66.44
2022-11-06T16:22:07.983Z,64.60
2022-11-06T16:24:43.926Z,64.95
2022-11-06T16:27:11.828Z,65.43
2022-11-06T16:29:39.729Z,65.74
2022-11-06T16:32:14.300Z,65.22
2022-11-06T16:34:45.768Z,65.82
2022-11-06T16:37:18.416Z,64.95
2022-11-06T16:39:50.955Z,64.83
2022-11-06T16:42:20.769Z,64.77
2022-11-06T16:44:59.273Z,64.63
2022-11-06T16:47:26.197Z,64.24
2022-11-06T16:49:58.280Z,64.58
2022-11-06T16:52:39.413Z,64.62
2022-11-06T16:55:16.664Z,64.17
2022-11-06T16:57:51.917Z,63.02
2022-11-06T17:00:21.554Z,63.28
2022-11-06T17:03:13.845Z,63.77
2022-11-06T17:05:52.995Z,64.30
2022-11-06T17:08:51.514Z,64.51
2022-11-06T17:11:21.976Z,64.90
2022-11-06T17:13:50.628Z,65.11
2022-11-06T17:16:23.215Z,65.24
2022-11-06T17:18:50.967Z,65.32
2022-11-06T17:21:22.524Z,65.32
2022-11-06T17:23:50.395Z,65.24
2022-11-06T17:26:30.463Z,65.06
2022-11-06T17:28:58.918Z,64.48
2022-11-06T17:31:27.040Z,64.83
2022-11-06T17:33:54.482Z,65.35
2022-11-06T17:36:26.387Z,65.53
2022-11-06T17:38:57.682Z,65.52
2022-11-06T17:41:32.336Z,64.58
2022-11-06T17:44:01.364Z,64.63
2022-11-06T17:46:33.381Z,64.98
2022-11-06T17:49:02.276Z,64.95
2022-11-06T17:51:53.889Z,64.95
2022-11-06T17:54:23.291Z,64.76
2022-11-06T17:56:51.598Z,64.88
2022-11-06T17:59:18.633Z,65.04
2022-11-06T18:01:47.813Z,65.01
2022-11-06T18:04:14.929Z,65.16
2022-11-06T18:06:44.954Z,66.16
2022-11-06T18:09:12.015Z,65.71
2022-11-06T18:11:38.893Z,65.58
2022-11-06T18:14:05.803Z,66.08
2022-11-06T18:16:39.709Z,66.16
2022-11-06T18:19:11.535Z,65.80
2022-11-06T18:21:38.444Z,65.31
2022-11-06T18:24:05.895Z,65.51
2022-11-06T18:26:32.942Z,65.52
2022-11-06T18:29:00.257Z,65.32
2022-11-06T18:31:27.099Z,64.84
2022-11-06T18:33:53.963Z,65.00
2022-11-06T18:36:21.017Z,64.14
2022-11-06T18:38:47.896Z,64.39
2022-11-06T18:41:17.259Z,63.77
2022-11-06T18:43:44.209Z,64.07
2022-11-06T18:46:16.721Z,64.17
2022-11-06T18:48:44.115Z,64.58
2022-11-06T18:51:27.835Z,64.47
2022-11-06T18:54:04.782Z,64.02
2022-11-06T18:56:32.530Z,64.68
2022-11-06T18:58:59.773Z,64.64
2022-11-06T19:01:26.871Z,65.04
2022-11-06T19:03:54.020Z,64.69
2022-11-06T19:06:21.611Z,64.23
2022-11-06T19:08:49.400Z,64.34
2022-11-06T19:11:17.797Z,64.49
2022-11-06T19:13:47.943Z,64.17
2022-11-06T19:16:16.585Z,64.05
2022-11-06T19:18:43.583Z,63.91
2022-11-06T19:21:11.753Z,63.90
2022-11-06T19:23:43.574Z,63.68
2022-11-06T19:26:30.709Z,63.72
2022-11-06T19:29:00.247Z,63.87
2022-11-06T19:31:30.763Z,63.86
2022-11-06T19:33:59.175Z,63.84
2022-11-06T19:36:26.465Z,63.85
2022-11-06T19:38:54.241Z,62.96
2022-11-06T19:41:21.590Z,63.06
2022-11-06T19:43:48.658Z,63.45
2022-11-06T19:46:24.112Z,63.25
2022-11-06T19:48:51.887Z,63.42
2022-11-06T19:51:19.082Z,63.43
2022-11-06T19:53:46.016Z,63.71
2022-11-06T19:56:16.611Z,62.96
2022-11-06T19:58:43.921Z,63.37
2022-11-06T20:01:15.909Z,63.97
2022-11-06T20:03:43.008Z,64.08
2022-11-06T20:06:11.053Z,64.06
2022-11-06T20:08:38.968Z,64.06
2022-11-06T20:11:09.248Z,64.15
2022-11-06T20:13:39.290Z,64.21
2022-11-06T20:16:08.891Z,64.35
2022-11-06T20:18:36.142Z,64.39
2022-11-06T20:21:06.081Z,64.28
2022-11-06T20:23:34.132Z,64.09
2022-11-06T20:26:01.495Z,63.89
2022-11-06T20:28:28.857Z,64.04
2022-11-06T20:30:56.587Z,65.14
2022-11-06T20:33:23.891Z,64.91
2022-11-06T20:35:50.868Z,64.78
2022-11-06T20:38:17.813Z,64.82
2022-11-06T20:40:45.372Z,64.82
2022-11-06T20:43:12.623Z,64.70
2022-11-06T20:45:40.068Z,64.81
2022-11-06T20:48:09.344Z,64.78
2022-11-06T20:50:36.421Z,64.24
2022-11-06T20:53:03.697Z,64.62
2022-11-06T20:55:30.651Z,64.86
2022-11-06T20:57:57.636Z,64.28
2022-11-06T21:00:24.661Z,64.06
2022-11-06T21:02:53.553Z,63.99
2022-11-06T21:05:23.253Z,64.12
2022-11-06T21:07:50.188Z,63.95
2022-11-06T21:10:17.163Z,63.32
2022-11-06T21:12:44.112Z,63.50
2022-11-06T21:15:11.103Z,63.66
2022-11-06T21:17:42.584Z,63.97
2022-11-06T21:20:11.000Z,64.12
2022-11-06T21:22:37.944Z,64.09
2022-11-06T21:25:05.195Z,63.89
2022-11-06T21:27:32.097Z,63.91
2022-11-06T21:29:59.007Z,63.86
2022-11-06T21:32:25.998Z,63.84
2022-11-06T21:34:52.903Z,63.85
2022-11-06T21:37:19.833Z,64.46
2022-11-06T21:39:46.980Z,64.75
2022-11-06T21:42:13.984Z,64.88
2022-11-06T21:44:40.891Z,65.11
2022-11-06T21:47:07.822Z,65.22
2022-11-06T21:49:34.743Z,65.24
2022-11-06T21:52:26.491Z,65.66
2022-11-06T21:55:14.367Z,66.21
2022-11-06T21:57:41.097Z,66.67
2022-11-06T22:00:11.763Z,66.80
2022-11-06T22:02:42.160Z,66.85
2022-11-06T22:05:09.379Z,66.81
2022-11-06T22:07:36.250Z,67.20
2022-11-06T22:10:04.022Z,67.24
2022-11-06T22:12:30.873Z,67.88
2022-11-06T22:14:57.780Z,68.25
2022-11-06T22:17:24.639Z,69.00
2022-11-06T22:19:51.473Z,69.21
2022-11-06T22:22:18.380Z,69.02
2022-11-06T22:24:46.321Z,69.11
2022-11-06T22:27:13.319Z,69.23
2022-11-06T22:29:40.211Z,69.27
2022-11-06T22:32:07.155Z,69.06
2022-11-06T22:34:34.237Z,69.44
2022-11-06T22:37:01.515Z,69.51
2022-11-06T22:39:28.715Z,69.51
2022-11-06T22:41:55.584Z,69.05
2022-11-06T22:44:22.831Z,69.44
2022-11-06T22:46:50.034Z,70.18
2022-11-06T22:49:17.073Z,70.09
2022-11-06T22:51:44.034Z,70.36
2022-11-06T22:54:10.975Z,70.24
2022-11-06T22:56:38.138Z,70.77
2022-11-06T22:59:09.888Z,71.12
2022-11-06T23:01:42.400Z,71.22
2022-11-06T23:04:15.649Z,71.35
2022-11-06T23:06:44.509Z,70.89
2022-11-06T23:09:11.645Z,70.73
2022-11-06T23:11:38.586Z,71.13
2022-11-06T23:14:08.821Z,71.55
2022-11-06T23:16:54.319Z,71.70
2022-11-06T23:19:21.271Z,71.70
2022-11-06T23:21:48.221Z,71.69
2022-11-06T23:24:15.681Z,71.60
2022-11-06T23:26:44.477Z,71.63
2022-11-06T23:29:11.638Z,71.57
2022-11-06T23:31:38.685Z,71.47
2022-11-06T23:34:05.639Z,71.85
2022-11-06T23:36:32.527Z,71.92
2022-11-06T23:38:59.567Z,71.48
2022-11-06T23:41:46.049Z,71.38
2022-11-06T23:44:33.404Z,71.28
2022-11-06T23:47:01.056Z,71.46
2022-11-06T23:49:28.309Z,71.67
2022-11-06T23:51:55.670Z,71.56
2022-11-06T23:54:22.637Z,71.51
2022-11-06T23:56:49.642Z,71.46
2022-11-06T23:59:16.896Z,70.29
